Ana Sayfa
METAR-TAF:

METAR-TAF

Havaalanları :

Wallis, Fransa

Enlem: 13-14S, Boylam: 176-10W, yükseklik: 23 m

Güncel hava durumu gözlemi

Rapor saat 09:00 UTC de 43 dakika önce yapıldı.
Rüzgar doğudan 8 kt
Sıcaklık 27°C
Nem 79%
Basınç 1015 hPa
Görüş mesafesi 10 km veya daha fazla

METAR: NLWW 190900Z AUTO 09008KT 9999 SCT028/// SCT037/// BKN047/// 27/23 Q1015 NOSIG

Saat: 21:43 (09:43 UTC)

Tahmin

Rapor saat 05:00 UTC de 4 saat ve 43 dakika önce yapıldı.
Ayın 19'si saat 06 UTC'den ayın 20'si saat 06 UTC'ye kadar geçerli Tahmin
Rüzgar doğudan 10 kt
Görüş mesafesi 10 km veya daha fazla
2500 ft yükseklikte parçalı bulutlu

TAF: NLWW 190500Z 1906/2006 09010KT 9999 SCT025

4.000'den fazla havaalanı için hava durumu gözlemleri ve tahminleri (METAR ve TAF raporları).

Kullanılabilir istasyonlar harita üzerinde sarı ve kırmızı noktalarla gösterilir.

İstasyonun adını görmek için fareyi noktanın üzerinde gezdirin.

Sonrasında hava gözlem ve tahminlerini görmek için tıklayın.

Haritayı değiştirmek için: yaklaştırmak için siyah artı işaretli yeşil düğmeye ve uzaklaştırmak için de eksi işaretli düğmeye hızla tıklayın; bitişik haritalar için yeşil okları kullanın.


METAR-TAF: